createdAt,value
2019-03-28T04:03:11.828Z,6.30
2019-03-28T04:05:41.505Z,6.30
2019-03-28T04:08:10.643Z,6.30
2019-03-28T04:10:39.774Z,6.20
2019-03-28T04:13:08.890Z,6.30
2019-03-28T04:15:38.283Z,6.30
2019-03-28T04:18:07.617Z,6.30
2019-03-28T04:20:36.706Z,6.30
2019-03-28T04:23:05.802Z,6.40
2019-03-28T04:25:34.927Z,6.40
2019-03-28T04:28:04.030Z,6.40
2019-03-28T04:30:33.210Z,6.40
2019-03-28T04:33:02.303Z,6.40
2019-03-28T04:35:31.391Z,6.40
2019-03-28T04:38:00.982Z,6.40
2019-03-28T04:40:30.074Z,6.40
2019-03-28T04:43:02.278Z,6.40
2019-03-28T04:45:31.393Z,6.40
2019-03-28T04:48:00.948Z,6.40
2019-03-28T04:50:30.674Z,6.40
2019-03-28T04:52:59.765Z,6.40
2019-03-28T04:55:28.891Z,6.40
2019-03-28T04:57:58.438Z,6.40
2019-03-28T05:00:27.533Z,6.40
2019-03-28T05:02:57.562Z,6.40
2019-03-28T05:05:27.566Z,6.40
2019-03-28T05:07:56.682Z,6.50
2019-03-28T05:10:25.791Z,6.40
2019-03-28T05:12:54.890Z,6.50
2019-03-28T05:15:24.012Z,6.60
2019-03-28T05:17:53.107Z,6.50
2019-03-28T05:20:23.534Z,6.60
2019-03-28T05:22:52.654Z,6.60
2019-03-28T05:25:21.784Z,6.60
2019-03-28T05:27:50.882Z,6.50
2019-03-28T05:30:20.273Z,6.60
2019-03-28T05:32:49.747Z,6.50
2019-03-28T05:35:18.846Z,6.60
2019-03-28T05:37:47.967Z,6.60
2019-03-28T05:40:17.078Z,6.60
2019-03-28T05:42:46.481Z,6.60
2019-03-28T05:45:15.952Z,6.70
2019-03-28T05:47:45.077Z,6.80
2019-03-28T05:50:14.186Z,6.80
2019-03-28T05:52:43.322Z,6.80
2019-03-28T05:55:13.361Z,6.80
2019-03-28T05:57:42.763Z,6.80
2019-03-28T06:00:11.902Z,6.90
2019-03-28T06:02:41.633Z,7.00
2019-03-28T06:05:10.759Z,7.00
2019-03-28T06:07:39.858Z,6.90
2019-03-28T06:10:09.129Z,6.90
2019-03-28T06:12:38.318Z,7.00
2019-03-28T06:15:07.423Z,7.00
2019-03-28T06:17:36.521Z,7.10
2019-03-28T06:20:06.178Z,7.20
2019-03-28T06:22:35.302Z,7.30
2019-03-28T06:25:05.869Z,7.30
2019-03-28T06:27:35.278Z,7.40
2019-03-28T06:30:04.970Z,7.40
2019-03-28T06:32:42.697Z,7.50
2019-03-28T06:35:05.771Z,7.50
2019-03-28T06:37:34.872Z,7.60
2019-03-28T06:40:04.195Z,7.70
2019-03-28T06:42:33.314Z,8.00
2019-03-28T06:45:03.973Z,8.20
2019-03-28T06:47:33.310Z,8.50
2019-03-28T06:50:02.422Z,8.60
2019-03-28T06:52:31.534Z,8.80
2019-03-28T06:55:00.663Z,8.80
2019-03-28T06:57:29.803Z,9.10
2019-03-28T06:59:59.223Z,9.10
2019-03-28T07:02:28.370Z,9.20
2019-03-28T07:04:57.761Z,9.20
2019-03-28T07:07:26.851Z,9.30
2019-03-28T07:09:55.967Z,9.70
2019-03-28T07:12:25.383Z,9.90
2019-03-28T07:14:54.515Z,10.20
2019-03-28T07:17:23.613Z,10.60
2019-03-28T07:19:52.722Z,10.80
2019-03-28T07:22:23.014Z,11.40
2019-03-28T07:24:52.475Z,12.30
2019-03-28T07:27:21.575Z,12.70
2019-03-28T07:29:51.497Z,13.20
2019-03-28T07:32:20.815Z,13.40
2019-03-28T07:34:49.922Z,13.60
2019-03-28T07:37:19.332Z,13.20
2019-03-28T07:39:48.466Z,13.30
2019-03-28T07:42:17.861Z,13.40
2019-03-28T07:44:47.246Z,13.50
2019-03-28T07:47:16.702Z,14.00
2019-03-28T07:49:46.110Z,14.10
2019-03-28T07:52:15.215Z,14.70
2019-03-28T07:54:44.335Z,14.90
2019-03-28T07:57:13.434Z,15.30
2019-03-28T07:59:44.083Z,15.60
2019-03-28T08:02:13.379Z,15.90
2019-03-28T08:04:42.795Z,16.50
2019-03-28T08:07:11.894Z,16.80
2019-03-28T08:09:41.043Z,17.90
2019-03-28T08:12:21.722Z,18.50
2019-03-28T08:14:40.978Z,20.50
2019-03-28T08:17:10.105Z,21.50
2019-03-28T08:19:41.544Z,22.30
2019-03-28T08:22:10.338Z,22.10
2019-03-28T08:24:39.483Z,21.40
2019-03-28T08:27:08.574Z,20.80
2019-03-28T08:29:37.951Z,20.00
2019-03-28T08:32:13.469Z,18.90
2019-03-28T08:34:41.577Z,18.30
2019-03-28T08:37:10.678Z,18.40
2019-03-28T08:39:39.854Z,18.20
2019-03-28T08:42:09.078Z,18.30
2019-03-28T08:44:38.679Z,18.20
2019-03-28T08:47:08.003Z,18.50
2019-03-28T08:49:37.106Z,19.10
2019-03-28T08:52:06.291Z,19.50
2019-03-28T08:54:36.052Z,19.80
2019-03-28T08:57:05.274Z,20.30
2019-03-28T08:59:34.374Z,21.00
2019-03-28T09:02:05.057Z,22.00
2019-03-28T09:04:34.386Z,22.00
2019-03-28T09:07:03.489Z,22.00
2019-03-28T09:09:32.898Z,21.70
2019-03-28T09:12:02.033Z,22.00
2019-03-28T09:14:32.099Z,22.10
2019-03-28T09:17:01.547Z,21.80
2019-03-28T09:19:31.015Z,21.60
2019-03-28T09:22:00.179Z,21.50
2019-03-28T09:24:29.342Z,22.10
2019-03-28T09:26:58.438Z,22.60
2019-03-28T09:29:27.555Z,22.60
2019-03-28T09:31:56.670Z,22.30
2019-03-28T09:34:25.762Z,22.20
2019-03-28T09:36:54.910Z,21.80
2019-03-28T09:39:25.051Z,22.00
2019-03-28T09:41:54.308Z,22.50
2019-03-28T09:44:23.694Z,22.70
2019-03-28T09:46:52.815Z,23.40
2019-03-28T09:49:21.910Z,24.20
2019-03-28T09:51:51.035Z,24.00
2019-03-28T09:54:20.181Z,23.30
2019-03-28T09:56:49.274Z,23.00
2019-03-28T09:59:18.402Z,22.70
2019-03-28T10:01:47.938Z,22.30
2019-03-28T10:04:17.034Z,22.40
2019-03-28T10:06:46.135Z,22.20
2019-03-28T10:09:15.595Z,21.90
2019-03-28T10:11:45.041Z,21.90
2019-03-28T10:14:33.198Z,22.10
2019-03-28T10:17:02.292Z,22.50
2019-03-28T10:19:31.394Z,22.50
2019-03-28T10:22:00.522Z,22.10
2019-03-28T10:24:29.918Z,22.00
2019-03-28T10:26:59.052Z,21.90
2019-03-28T10:29:28.179Z,22.00
2019-03-28T10:31:57.270Z,22.30
2019-03-28T10:34:26.369Z,22.50
2019-03-28T10:36:55.495Z,23.30
2019-03-28T10:39:24.612Z,24.90
2019-03-28T10:41:54.736Z,25.00
2019-03-28T10:44:24.490Z,26.40
2019-03-28T10:46:53.603Z,26.70
2019-03-28T10:49:22.703Z,26.70
2019-03-28T10:51:51.826Z,26.60
2019-03-28T10:54:21.090Z,25.50
2019-03-28T10:56:52.480Z,25.20
2019-03-28T10:59:25.335Z,24.20
2019-03-28T11:01:51.933Z,24.10
2019-03-28T11:04:21.109Z,24.10
2019-03-28T11:06:50.294Z,24.20
2019-03-28T11:09:19.409Z,23.50
2019-03-28T11:11:48.486Z,23.10
2019-03-28T11:14:17.618Z,22.70
2019-03-28T11:16:48.373Z,22.50
2019-03-28T11:19:17.847Z,22.30
2019-03-28T11:21:47.280Z,21.70
2019-03-28T11:24:16.382Z,21.70
2019-03-28T11:26:45.855Z,21.40
2019-03-28T11:29:14.975Z,21.20
2019-03-28T11:31:47.777Z,21.40
2019-03-28T11:34:14.944Z,21.00
2019-03-28T11:36:44.087Z,20.80
2019-03-28T11:39:13.174Z,21.10
2019-03-28T11:41:42.271Z,20.70
2019-03-28T11:44:11.622Z,20.40
2019-03-28T11:46:40.967Z,20.50
2019-03-28T11:49:10.089Z,20.50
2019-03-28T11:51:39.212Z,20.70
2019-03-28T11:54:08.305Z,20.50
2019-03-28T11:56:37.398Z,20.40
2019-03-28T11:59:06.605Z,20.00
2019-03-28T12:01:35.695Z,19.40
2019-03-28T12:04:04.800Z,19.30
2019-03-28T12:06:33.959Z,18.70
2019-03-28T12:09:04.539Z,18.20
2019-03-28T12:11:33.638Z,18.20
2019-03-28T12:14:02.770Z,18.00
2019-03-28T12:16:31.965Z,17.70
2019-03-28T12:19:01.370Z,17.40
2019-03-28T12:21:30.474Z,17.40
2019-03-28T12:23:59.934Z,17.70
2019-03-28T12:26:29.026Z,17.20
2019-03-28T12:28:58.158Z,17.10
2019-03-28T12:31:27.319Z,17.00
2019-03-28T12:33:56.458Z,17.00
2019-03-28T12:36:25.598Z,16.80
2019-03-28T12:38:54.865Z,16.80
2019-03-28T12:41:24.084Z,16.80
2019-03-28T12:43:53.279Z,16.80
2019-03-28T12:46:25.494Z,16.50
2019-03-28T12:48:53.259Z,16.60
2019-03-28T12:51:22.435Z,16.40
2019-03-28T12:53:51.530Z,16.50
2019-03-28T12:56:20.622Z,16.40
2019-03-28T12:58:49.734Z,16.50
2019-03-28T13:01:18.837Z,16.40
2019-03-28T13:03:47.928Z,16.30
2019-03-28T13:06:17.055Z,16.40
2019-03-28T13:08:46.355Z,16.50
2019-03-28T13:11:15.472Z,16.30
2019-03-28T13:13:44.649Z,16.50
2019-03-28T13:16:13.804Z,16.60
2019-03-28T13:18:43.436Z,16.60
2019-03-28T13:21:14.209Z,16.80
2019-03-28T13:23:43.547Z,17.10
2019-03-28T13:26:12.635Z,17.30
2019-03-28T13:28:41.915Z,17.40
2019-03-28T13:31:11.011Z,17.60
2019-03-28T13:33:40.106Z,17.80
2019-03-28T13:36:09.555Z,17.70
2019-03-28T13:38:38.931Z,17.60
2019-03-28T13:41:08.050Z,17.60
2019-03-28T13:43:39.906Z,17.40
2019-03-28T13:46:09.006Z,17.50
2019-03-28T13:48:38.107Z,17.70
2019-03-28T13:51:07.223Z,17.40
2019-03-28T13:53:39.812Z,17.50
2019-03-28T13:56:07.153Z,17.60
2019-03-28T13:58:36.742Z,17.70
2019-03-28T14:01:05.879Z,17.60
2019-03-28T14:03:35.006Z,17.80
2019-03-28T14:06:04.285Z,17.80
2019-03-28T14:08:33.416Z,17.60
2019-03-28T14:11:02.771Z,17.40
2019-03-28T14:13:32.233Z,17.40
2019-03-28T14:16:01.624Z,17.40
2019-03-28T14:18:31.006Z,17.50
2019-03-28T14:21:00.287Z,17.80
2019-03-28T14:23:29.447Z,18.00
2019-03-28T14:25:58.862Z,17.80
2019-03-28T14:28:28.327Z,17.50
2019-03-28T14:31:00.687Z,17.40
2019-03-28T14:33:29.374Z,17.00
2019-03-28T14:35:58.522Z,17.10
2019-03-28T14:38:27.713Z,17.00
2019-03-28T14:40:58.377Z,17.10
2019-03-28T14:43:27.582Z,16.70
2019-03-28T14:45:56.778Z,16.40
2019-03-28T14:48:25.923Z,16.60
2019-03-28T14:50:55.117Z,16.40
2019-03-28T14:53:24.202Z,16.10
2019-03-28T14:55:53.310Z,16.00
2019-03-28T14:58:22.419Z,15.90
2019-03-28T15:00:52.405Z,15.90
2019-03-28T15:03:26.748Z,15.90
2019-03-28T15:05:52.642Z,15.90
2019-03-28T15:08:21.736Z,15.80
2019-03-28T15:10:50.825Z,15.70
2019-03-28T15:13:19.947Z,15.70
2019-03-28T15:15:49.042Z,15.80
2019-03-28T15:18:18.308Z,15.60
2019-03-28T15:20:47.490Z,15.60
2019-03-28T15:23:16.605Z,15.50
2019-03-28T15:25:45.751Z,15.40
2019-03-28T15:28:14.838Z,15.30
2019-03-28T15:30:44.094Z,15.20
2019-03-28T15:33:13.316Z,15.20
2019-03-28T15:35:42.578Z,15.00
2019-03-28T15:38:11.702Z,14.80
2019-03-28T15:40:40.857Z,14.70
2019-03-28T15:43:10.001Z,14.70
2019-03-28T15:45:39.105Z,14.80
2019-03-28T15:48:08.201Z,14.60
2019-03-28T15:50:37.331Z,14.60
2019-03-28T15:53:06.495Z,14.50
2019-03-28T15:55:35.694Z,14.40
2019-03-28T15:58:04.806Z,14.30
2019-03-28T16:00:33.904Z,14.20
2019-03-28T16:03:03.425Z,14.10
2019-03-28T16:05:32.523Z,14.10
2019-03-28T16:08:01.926Z,14.10
2019-03-28T16:10:31.046Z,14.00
2019-03-28T16:13:00.234Z,14.00
2019-03-28T16:15:29.416Z,13.90
2019-03-28T16:17:58.512Z,13.90
2019-03-28T16:20:27.679Z,14.00
2019-03-28T16:22:56.770Z,14.00
2019-03-28T16:25:25.859Z,14.10
2019-03-28T16:27:54.975Z,14.10
2019-03-28T16:30:43.187Z,14.10
2019-03-28T16:33:12.331Z,14.00
2019-03-28T16:35:44.442Z,13.90
2019-03-28T16:38:14.072Z,13.80
2019-03-28T16:40:43.178Z,13.60
2019-03-28T16:43:12.275Z,13.40
2019-03-28T16:45:41.426Z,13.50
2019-03-28T16:48:10.819Z,13.40
2019-03-28T16:50:40.214Z,13.20
2019-03-28T16:53:09.912Z,13.10
2019-03-28T16:55:39.567Z,13.20
2019-03-28T16:58:08.678Z,13.10
2019-03-28T17:00:38.890Z,13.20
2019-03-28T17:03:07.991Z,13.00
2019-03-28T17:05:37.107Z,12.90
2019-03-28T17:08:06.214Z,12.90
2019-03-28T17:10:52.281Z,12.90
2019-03-28T17:13:21.427Z,12.80
2019-03-28T17:15:51.173Z,12.80
2019-03-28T17:18:20.558Z,12.80
2019-03-28T17:20:49.720Z,12.80
2019-03-28T17:23:19.114Z,12.70
2019-03-28T17:25:48.235Z,12.70
2019-03-28T17:28:17.401Z,12.60
2019-03-28T17:30:46.534Z,12.60
2019-03-28T17:33:17.767Z,12.50
2019-03-28T17:35:46.590Z,12.50
2019-03-28T17:38:15.690Z,12.40
2019-03-28T17:40:44.784Z,12.40
2019-03-28T17:43:13.890Z,12.30
2019-03-28T17:45:43.154Z,12.30
2019-03-28T17:48:12.277Z,12.20
2019-03-28T17:50:41.401Z,12.10
2019-03-28T17:53:10.533Z,12.00
2019-03-28T17:55:39.648Z,12.00
2019-03-28T17:58:08.751Z,12.00
2019-03-28T18:00:37.940Z,12.00
2019-03-28T18:03:09.499Z,11.90
2019-03-28T18:05:40.470Z,11.80
2019-03-28T18:08:09.337Z,11.90
2019-03-28T18:10:38.568Z,11.90
2019-03-28T18:13:07.743Z,11.80
2019-03-28T18:15:36.985Z,11.70
2019-03-28T18:18:06.292Z,11.80
2019-03-28T18:20:35.542Z,11.80
2019-03-28T18:23:05.113Z,11.70
2019-03-28T18:25:34.356Z,11.70
2019-03-28T18:28:03.598Z,11.70
2019-03-28T18:30:32.846Z,11.70
2019-03-28T18:33:03.926Z,11.80
2019-03-28T18:35:33.385Z,11.70
2019-03-28T18:38:03.336Z,11.80
2019-03-28T18:40:32.754Z,11.70
2019-03-28T18:43:03.937Z,11.60
2019-03-28T18:45:33.900Z,11.60
2019-03-28T18:48:03.142Z,11.60
2019-03-28T18:50:32.385Z,11.60
2019-03-28T18:53:01.589Z,11.60
2019-03-28T18:55:30.739Z,11.60
2019-03-28T18:58:00.050Z,11.60
2019-03-28T19:00:29.158Z,11.70
2019-03-28T19:02:58.373Z,11.60
2019-03-28T19:05:27.466Z,11.50
2019-03-28T19:07:57.062Z,11.60
2019-03-28T19:10:26.327Z,11.50
2019-03-28T19:12:55.521Z,11.50
2019-03-28T19:15:24.669Z,11.40
2019-03-28T19:17:53.825Z,11.40
2019-03-28T19:20:23.190Z,11.30
2019-03-28T19:22:52.650Z,11.30
2019-03-28T19:25:22.088Z,11.30
2019-03-28T19:27:51.206Z,11.30
2019-03-28T19:30:29.731Z,11.30
2019-03-28T19:32:58.928Z,11.30
2019-03-28T19:35:33.243Z,11.30
2019-03-28T19:37:59.179Z,11.20
2019-03-28T19:40:28.528Z,11.30
2019-03-28T19:42:57.630Z,11.30
2019-03-28T19:45:35.838Z,11.20
2019-03-28T19:48:06.141Z,11.20
2019-03-28T19:50:35.268Z,11.20
2019-03-28T19:53:05.139Z,11.20
2019-03-28T19:55:34.656Z,11.20
2019-03-28T19:58:04.865Z,11.20
2019-03-28T20:00:34.669Z,11.20
2019-03-28T20:03:03.778Z,11.20
2019-03-28T20:05:46.365Z,11.10
2019-03-28T20:08:14.949Z,11.10
2019-03-28T20:10:34.978Z,11.10
2019-03-28T20:13:05.452Z,11.10
2019-03-28T20:15:34.966Z,11.10
2019-03-28T20:18:04.188Z,11.10
2019-03-28T20:20:33.282Z,11.00
2019-03-28T20:23:02.405Z,11.00
2019-03-28T20:25:32.651Z,11.00
2019-03-28T20:28:02.238Z,11.00
2019-03-28T20:30:31.461Z,11.00
2019-03-28T20:33:00.662Z,11.00
2019-03-28T20:35:29.762Z,10.90
2019-03-28T20:37:58.930Z,11.00
2019-03-28T20:40:28.048Z,10.90
2019-03-28T20:42:57.274Z,10.90
2019-03-28T20:45:26.398Z,10.90
2019-03-28T20:47:55.585Z,10.90
2019-03-28T20:50:28.044Z,10.90
2019-03-28T20:52:57.642Z,10.90
2019-03-28T20:55:26.840Z,10.90
2019-03-28T20:57:55.947Z,10.90
2019-03-28T21:00:40.064Z,10.90
2019-03-28T21:03:09.367Z,10.90
2019-03-28T21:05:38.510Z,10.90
2019-03-28T21:08:07.676Z,10.80
2019-03-28T21:10:36.772Z,10.90
2019-03-28T21:13:05.866Z,10.80
2019-03-28T21:15:35.022Z,10.80
2019-03-28T21:18:04.155Z,10.70
2019-03-28T21:20:33.333Z,10.70
2019-03-28T21:23:05.123Z,10.70
2019-03-28T21:25:33.266Z,10.60
2019-03-28T21:28:02.358Z,10.60
2019-03-28T21:30:31.594Z,10.60
2019-03-28T21:33:00.685Z,10.50
2019-03-28T21:35:29.842Z,10.60
2019-03-28T21:37:59.006Z,10.50
2019-03-28T21:40:28.163Z,10.50
2019-03-28T21:42:57.349Z,10.50
2019-03-28T21:45:26.466Z,10.40
2019-03-28T21:47:55.558Z,10.40
2019-03-28T21:50:24.943Z,10.30
2019-03-28T21:52:54.430Z,10.30
2019-03-28T21:55:23.535Z,10.40
2019-03-28T21:57:52.634Z,10.30
2019-03-28T22:00:21.761Z,10.30
2019-03-28T22:02:51.119Z,10.30
2019-03-28T22:05:20.435Z,10.40
2019-03-28T22:07:49.833Z,10.30
2019-03-28T22:10:19.009Z,10.20
2019-03-28T22:12:48.099Z,10.20
2019-03-28T22:15:17.250Z,10.20
2019-03-28T22:17:46.337Z,10.20
2019-03-28T22:20:15.439Z,10.20
2019-03-28T22:22:44.686Z,10.10
2019-03-28T22:25:13.786Z,10.10
2019-03-28T22:27:42.893Z,10.20
2019-03-28T22:30:13.008Z,10.20
2019-03-28T22:32:42.297Z,10.10
2019-03-28T22:35:11.403Z,10.00
2019-03-28T22:37:40.506Z,10.00
2019-03-28T22:40:11.900Z,10.00
2019-03-28T22:42:40.953Z,10.00
2019-03-28T22:45:10.835Z,9.90
2019-03-28T22:47:39.911Z,9.90
2019-03-28T22:50:09.039Z,9.80
2019-03-28T22:52:38.150Z,9.80
2019-03-28T22:55:07.703Z,9.80
2019-03-28T22:57:36.789Z,9.80
2019-03-28T23:00:08.378Z,9.70
